Terminal Aerodrome Forecast
Issued by NWS Hastings, NE

Current Version | Previous Version | Text Only | Print | Product List | Glossary On
Versions: 1 2 3 4 5 6 7 8 9 10 11 12 13 14
000
FTUS45 KGID 250520
TAFEAR
TAF
KEAR 250520Z 2506/2606 04004KT P6SM SCT100 BKN250
     FM251400 10007KT P6SM FEW100 SCT250
     FM251900 12013KT P6SM FEW100 FEW250
     FM260500 13007KT P6SM FEW050 BKN250
      AMD LTD TO CLD VIS AND WIND=

USA.gov is the U.S. government's official web portal to all federal, state and local government web resources and services.